Albany International Airport Albany US
ICAO: KALB
IATA: ALB
Category: Medium
Scheduled Services: Yes

Elevation: 285 ft
TransAlt. 18000 ft.

Airport Communications:
APP/DEP:118.05
ATIS:120.45
CLNC DEL:127.5
GND:121.7
ARNG OPS:41
BURLINGTON RDO:122.2
TWR:119.5
UNICOM:122.95

KALB Zoom In..

If you have problems with the map follow the link
https://www.worldairports.se/pages/airport.php?
ICAO=KALB

Runways:

(A) RW 01 length 8500 ft width 150 ft
ILS 109.50 / hdg 11

(B) RW 10 length 7200 ft width 150 ft
---- / hdg 101

(C) RW 19 length 8500 ft width 150 ft
ILS 109.50 / hdg 191

(D) RW 28 length 7200 ft width 150 ft
---- / hdg 281

Location; KALB
Day. 19 / Time. 18.51 Zulu
* Altimeter: 29.74
* Temperature: 02° c. 35.6°f.
* Wind from: 310° Speed 19 kn with Gusts up to 28 kn.
Dewpoint: -06° c.
Visibility: 10 Statute Miles.
Clouds: Few 4000 ft.
Clouds: Broken 5500 ft.
Clouds: Overcast 7000 ft.

KALB 191851Z 31019G28KT 10SM FEW040 BKN055 OVC070 02/M06 A2974 RMK AO2 PK WND 29030/1824 SNE11 SLP074 VCSH S-NW P0000 T00171056


Wind From 310°
Speed 19 kn.

 
 
jpsmedia worldairports.se 2020   terms of use